sensor_id;sensor_type;location;lat;lon;timestamp;P1;durP1;ratioP1;P2;durP2;ratioP2
10977;SDS011;5542;48.272;10.794;2022-12-10T00:00:03;19.85;;;12.73;;
10977;SDS011;5542;48.272;10.794;2022-12-10T00:02:32;27.10;;;15.45;;
10977;SDS011;5542;48.272;10.794;2022-12-10T00:04:59;26.03;;;16.00;;
10977;SDS011;5542;48.272;10.794;2022-12-10T00:07:25;25.25;;;15.07;;
10977;SDS011;5542;48.272;10.794;2022-12-10T00:09:52;26.10;;;15.52;;
10977;SDS011;5542;48.272;10.794;2022-12-10T00:12:19;29.83;;;16.02;;
10977;SDS011;5542;48.272;10.794;2022-12-10T00:14:45;25.80;;;14.15;;
10977;SDS011;5542;48.272;10.794;2022-12-10T00:17:12;31.15;;;16.15;;
10977;SDS011;5542;48.272;10.794;2022-12-10T00:19:41;27.50;;;15.98;;
10977;SDS011;5542;48.272;10.794;2022-12-10T00:22:07;26.48;;;14.07;;
10977;SDS011;5542;48.272;10.794;2022-12-10T00:24:34;20.85;;;12.07;;
10977;SDS011;5542;48.272;10.794;2022-12-10T00:27:01;20.92;;;12.35;;
10977;SDS011;5542;48.272;10.794;2022-12-10T00:29:27;25.73;;;14.73;;
10977;SDS011;5542;48.272;10.794;2022-12-10T00:31:54;22.67;;;13.32;;
10977;SDS011;5542;48.272;10.794;2022-12-10T00:34:20;24.92;;;14.00;;
10977;SDS011;5542;48.272;10.794;2022-12-10T00:36:48;21.50;;;13.32;;
10977;SDS011;5542;48.272;10.794;2022-12-10T00:39:16;22.80;;;13.32;;
10977;SDS011;5542;48.272;10.794;2022-12-10T00:41:44;18.40;;;11.57;;
10977;SDS011;5542;48.272;10.794;2022-12-10T00:44:11;21.65;;;13.52;;
10977;SDS011;5542;48.272;10.794;2022-12-10T00:46:38;22.60;;;13.13;;
10977;SDS011;5542;48.272;10.794;2022-12-10T00:49:05;25.13;;;14.85;;
10977;SDS011;5542;48.272;10.794;2022-12-10T00:51:31;20.40;;;12.17;;
10977;SDS011;5542;48.272;10.794;2022-12-10T00:53:59;25.30;;;13.23;;
10977;SDS011;5542;48.272;10.794;2022-12-10T00:56:27;23.80;;;13.15;;
10977;SDS011;5542;48.272;10.794;2022-12-10T00:58:56;21.30;;;11.90;;
10977;SDS011;5542;48.272;10.794;2022-12-10T01:01:23;18.98;;;11.80;;
10977;SDS011;5542;48.272;10.794;2022-12-10T01:03:52;22.30;;;13.48;;
10977;SDS011;5542;48.272;10.794;2022-12-10T01:06:22;18.63;;;11.50;;
10977;SDS011;5542;48.272;10.794;2022-12-10T01:08:51;16.60;;;10.30;;
10977;SDS011;5542;48.272;10.794;2022-12-10T01:11:21;19.20;;;11.07;;
10977;SDS011;5542;48.272;10.794;2022-12-10T01:13:51;19.77;;;11.52;;
10977;SDS011;5542;48.272;10.794;2022-12-10T01:16:19;21.50;;;12.77;;
10977;SDS011;5542;48.272;10.794;2022-12-10T01:18:47;23.52;;;12.93;;
10977;SDS011;5542;48.272;10.794;2022-12-10T01:21:15;18.60;;;11.02;;
10977;SDS011;5542;48.272;10.794;2022-12-10T01:23:45;16.58;;;9.90;;
10977;SDS011;5542;48.272;10.794;2022-12-10T01:26:14;16.98;;;10.35;;
10977;SDS011;5542;48.272;10.794;2022-12-10T01:28:45;14.00;;;8.25;;
10977;SDS011;5542;48.272;10.794;2022-12-10T01:31:12;16.05;;;9.55;;
10977;SDS011;5542;48.272;10.794;2022-12-10T01:33:40;14.60;;;9.68;;
10977;SDS011;5542;48.272;10.794;2022-12-10T01:36:08;16.23;;;9.57;;
10977;SDS011;5542;48.272;10.794;2022-12-10T01:38:37;14.75;;;9.15;;
10977;SDS011;5542;48.272;10.794;2022-12-10T01:41:05;15.75;;;8.50;;
10977;SDS011;5542;48.272;10.794;2022-12-10T01:46:32;15.45;;;9.32;;
10977;SDS011;5542;48.272;10.794;2022-12-10T01:49:00;15.02;;;9.48;;
10977;SDS011;5542;48.272;10.794;2022-12-10T01:51:29;18.23;;;11.05;;
10977;SDS011;5542;48.272;10.794;2022-12-10T01:53:59;16.23;;;9.85;;
10977;SDS011;5542;48.272;10.794;2022-12-10T01:56:26;14.07;;;9.55;;
10977;SDS011;5542;48.272;10.794;2022-12-10T01:58:54;20.83;;;11.75;;
10977;SDS011;5542;48.272;10.794;2022-12-10T02:01:26;16.98;;;10.60;;
10977;SDS011;5542;48.272;10.794;2022-12-10T02:03:59;19.60;;;11.70;;
10977;SDS011;5542;48.272;10.794;2022-12-10T02:06:39;18.37;;;11.87;;
10977;SDS011;5542;48.272;10.794;2022-12-10T02:09:14;18.55;;;11.13;;
10977;SDS011;5542;48.272;10.794;2022-12-10T02:11:46;23.63;;;13.13;;
10977;SDS011;5542;48.272;10.794;2022-12-10T02:14:24;23.10;;;12.55;;
10977;SDS011;5542;48.272;10.794;2022-12-10T02:16:57;21.80;;;13.00;;
10977;SDS011;5542;48.272;10.794;2022-12-10T02:19:31;22.10;;;12.97;;
10977;SDS011;5542;48.272;10.794;2022-12-10T02:22:12;22.52;;;13.15;;
10977;SDS011;5542;48.272;10.794;2022-12-10T02:24:41;19.63;;;12.85;;
10977;SDS011;5542;48.272;10.794;2022-12-10T02:27:10;17.48;;;11.13;;
10977;SDS011;5542;48.272;10.794;2022-12-10T02:29:43;22.48;;;13.57;;
10977;SDS011;5542;48.272;10.794;2022-12-10T02:32:13;18.27;;;11.88;;
10977;SDS011;5542;48.272;10.794;2022-12-10T02:34:45;20.27;;;13.35;;
10977;SDS011;5542;48.272;10.794;2022-12-10T02:37:15;21.80;;;13.05;;
10977;SDS011;5542;48.272;10.794;2022-12-10T02:39:47;21.67;;;12.75;;
10977;SDS011;5542;48.272;10.794;2022-12-10T02:42:17;19.70;;;13.07;;
10977;SDS011;5542;48.272;10.794;2022-12-10T02:44:47;20.23;;;12.32;;
10977;SDS011;5542;48.272;10.794;2022-12-10T02:47:15;20.40;;;12.68;;
10977;SDS011;5542;48.272;10.794;2022-12-10T02:49:44;19.17;;;12.57;;
10977;SDS011;5542;48.272;10.794;2022-12-10T02:52:14;19.95;;;12.70;;
10977;SDS011;5542;48.272;10.794;2022-12-10T02:54:44;17.80;;;12.13;;
10977;SDS011;5542;48.272;10.794;2022-12-10T02:57:18;22.42;;;13.00;;
10977;SDS011;5542;48.272;10.794;2022-12-10T02:59:59;16.20;;;11.13;;
10977;SDS011;5542;48.272;10.794;2022-12-10T03:02:32;17.58;;;11.73;;
10977;SDS011;5542;48.272;10.794;2022-12-10T03:05:08;19.35;;;12.98;;
10977;SDS011;5542;48.272;10.794;2022-12-10T03:07:41;17.05;;;11.02;;
10977;SDS011;5542;48.272;10.794;2022-12-10T03:10:14;16.88;;;11.77;;
10977;SDS011;5542;48.272;10.794;2022-12-10T03:12:48;16.10;;;11.88;;
10977;SDS011;5542;48.272;10.794;2022-12-10T03:15:22;20.70;;;14.13;;
10977;SDS011;5542;48.272;10.794;2022-12-10T03:17:51;20.17;;;13.43;;
10977;SDS011;5542;48.272;10.794;2022-12-10T03:20:19;18.77;;;13.45;;
10977;SDS011;5542;48.272;10.794;2022-12-10T03:22:50;21.90;;;13.43;;
10977;SDS011;5542;48.272;10.794;2022-12-10T03:25:19;17.33;;;12.00;;
10977;SDS011;5542;48.272;10.794;2022-12-10T03:27:50;15.90;;;10.88;;
10977;SDS011;5542;48.272;10.794;2022-12-10T03:30:21;15.65;;;10.48;;
10977;SDS011;5542;48.272;10.794;2022-12-10T03:32:48;17.63;;;12.23;;
10977;SDS011;5542;48.272;10.794;2022-12-10T03:35:16;17.50;;;10.90;;
10977;SDS011;5542;48.272;10.794;2022-12-10T03:37:45;20.75;;;12.73;;
10977;SDS011;5542;48.272;10.794;2022-12-10T03:40:12;15.02;;;11.45;;
10977;SDS011;5542;48.272;10.794;2022-12-10T03:42:40;18.60;;;12.77;;
10977;SDS011;5542;48.272;10.794;2022-12-10T03:45:07;16.60;;;11.60;;
10977;SDS011;5542;48.272;10.794;2022-12-10T03:47:35;14.55;;;10.27;;
10977;SDS011;5542;48.272;10.794;2022-12-10T03:50:02;13.70;;;10.02;;
10977;SDS011;5542;48.272;10.794;2022-12-10T03:52:29;14.63;;;9.35;;
10977;SDS011;5542;48.272;10.794;2022-12-10T03:54:55;18.20;;;12.77;;
10977;SDS011;5542;48.272;10.794;2022-12-10T03:57:22;15.93;;;12.00;;
10977;SDS011;5542;48.272;10.794;2022-12-10T03:59:49;17.73;;;12.27;;
10977;SDS011;5542;48.272;10.794;2022-12-10T04:02:15;18.15;;;12.48;;
10977;SDS011;5542;48.272;10.794;2022-12-10T04:04:44;18.08;;;12.95;;
10977;SDS011;5542;48.272;10.794;2022-12-10T04:07:10;17.20;;;11.95;;
10977;SDS011;5542;48.272;10.794;2022-12-10T04:09:38;16.67;;;12.27;;
10977;SDS011;5542;48.272;10.794;2022-12-10T04:12:04;15.63;;;11.43;;
10977;SDS011;5542;48.272;10.794;2022-12-10T04:14:31;17.98;;;12.70;;
10977;SDS011;5542;48.272;10.794;2022-12-10T04:17:16;17.50;;;12.25;;
10977;SDS011;5542;48.272;10.794;2022-12-10T04:19:43;16.45;;;12.05;;
10977;SDS011;5542;48.272;10.794;2022-12-10T04:22:10;15.27;;;11.15;;
10977;SDS011;5542;48.272;10.794;2022-12-10T04:24:54;15.50;;;10.90;;
10977;SDS011;5542;48.272;10.794;2022-12-10T04:27:38;15.45;;;10.85;;
10977;SDS011;5542;48.272;10.794;2022-12-10T04:30:06;14.93;;;10.68;;
10977;SDS011;5542;48.272;10.794;2022-12-10T04:32:35;15.13;;;11.18;;
10977;SDS011;5542;48.272;10.794;2022-12-10T04:35:04;17.15;;;12.45;;
10977;SDS011;5542;48.272;10.794;2022-12-10T04:37:31;14.40;;;10.13;;
10977;SDS011;5542;48.272;10.794;2022-12-10T04:39:58;16.25;;;11.95;;
10977;SDS011;5542;48.272;10.794;2022-12-10T04:42:24;15.70;;;11.02;;
10977;SDS011;5542;48.272;10.794;2022-12-10T04:44:51;14.68;;;11.60;;
10977;SDS011;5542;48.272;10.794;2022-12-10T04:47:18;13.82;;;10.75;;
10977;SDS011;5542;48.272;10.794;2022-12-10T04:49:45;15.30;;;11.15;;
10977;SDS011;5542;48.272;10.794;2022-12-10T04:52:13;13.98;;;10.15;;
10977;SDS011;5542;48.272;10.794;2022-12-10T04:54:41;12.13;;;9.65;;
10977;SDS011;5542;48.272;10.794;2022-12-10T04:57:09;11.80;;;9.33;;
10977;SDS011;5542;48.272;10.794;2022-12-10T04:59:36;12.85;;;9.35;;
10977;SDS011;5542;48.272;10.794;2022-12-10T05:02:03;11.43;;;8.60;;
10977;SDS011;5542;48.272;10.794;2022-12-10T05:04:30;16.40;;;11.88;;
10977;SDS011;5542;48.272;10.794;2022-12-10T05:06:56;16.27;;;11.77;;
10977;SDS011;5542;48.272;10.794;2022-12-10T05:09:24;15.32;;;10.82;;
10977;SDS011;5542;48.272;10.794;2022-12-10T05:11:51;16.27;;;11.40;;
10977;SDS011;5542;48.272;10.794;2022-12-10T05:14:18;12.25;;;9.57;;
10977;SDS011;5542;48.272;10.794;2022-12-10T05:16:44;16.50;;;11.30;;
10977;SDS011;5542;48.272;10.794;2022-12-10T05:19:11;16.30;;;11.70;;
10977;SDS011;5542;48.272;10.794;2022-12-10T05:21:38;17.30;;;12.18;;
10977;SDS011;5542;48.272;10.794;2022-12-10T05:24:22;17.05;;;12.13;;
10977;SDS011;5542;48.272;10.794;2022-12-10T05:26:51;16.95;;;11.57;;
10977;SDS011;5542;48.272;10.794;2022-12-10T05:29:18;18.20;;;12.57;;
10977;SDS011;5542;48.272;10.794;2022-12-10T05:31:45;16.25;;;11.60;;
10977;SDS011;5542;48.272;10.794;2022-12-10T05:34:12;20.00;;;13.15;;
10977;SDS011;5542;48.272;10.794;2022-12-10T05:36:39;16.48;;;11.82;;
10977;SDS011;5542;48.272;10.794;2022-12-10T05:39:06;18.85;;;13.52;;
10977;SDS011;5542;48.272;10.794;2022-12-10T05:41:37;17.90;;;12.20;;
10977;SDS011;5542;48.272;10.794;2022-12-10T05:44:04;16.10;;;11.40;;
10977;SDS011;5542;48.272;10.794;2022-12-10T05:46:33;17.45;;;12.13;;
10977;SDS011;5542;48.272;10.794;2022-12-10T05:49:00;17.20;;;13.15;;
10977;SDS011;5542;48.272;10.794;2022-12-10T05:51:30;17.07;;;12.17;;
10977;SDS011;5542;48.272;10.794;2022-12-10T05:53:59;17.17;;;11.57;;
10977;SDS011;5542;48.272;10.794;2022-12-10T05:56:28;19.15;;;12.48;;
10977;SDS011;5542;48.272;10.794;2022-12-10T05:58:58;17.30;;;12.18;;
10977;SDS011;5542;48.272;10.794;2022-12-10T06:01:27;16.77;;;12.30;;
10977;SDS011;5542;48.272;10.794;2022-12-10T06:03:56;17.90;;;12.43;;
10977;SDS011;5542;48.272;10.794;2022-12-10T06:06:24;19.30;;;13.63;;
10977;SDS011;5542;48.272;10.794;2022-12-10T06:08:51;16.83;;;12.38;;
10977;SDS011;5542;48.272;10.794;2022-12-10T06:11:19;21.08;;;13.02;;
10977;SDS011;5542;48.272;10.794;2022-12-10T06:13:46;18.70;;;13.07;;
10977;SDS011;5542;48.272;10.794;2022-12-10T06:16:15;20.23;;;13.40;;
10977;SDS011;5542;48.272;10.794;2022-12-10T06:18:42;18.55;;;13.02;;
10977;SDS011;5542;48.272;10.794;2022-12-10T06:21:10;17.65;;;12.38;;
10977;SDS011;5542;48.272;10.794;2022-12-10T06:23:38;15.30;;;10.38;;
10977;SDS011;5542;48.272;10.794;2022-12-10T06:26:05;17.75;;;11.98;;
10977;SDS011;5542;48.272;10.794;2022-12-10T06:28:34;15.88;;;11.00;;
10977;SDS011;5542;48.272;10.794;2022-12-10T06:31:01;15.13;;;10.75;;
10977;SDS011;5542;48.272;10.794;2022-12-10T06:33:29;17.42;;;13.23;;
10977;SDS011;5542;48.272;10.794;2022-12-10T06:35:55;17.17;;;11.63;;
10977;SDS011;5542;48.272;10.794;2022-12-10T06:38:22;15.70;;;10.90;;
10977;SDS011;5542;48.272;10.794;2022-12-10T06:40:49;14.80;;;10.50;;
10977;SDS011;5542;48.272;10.794;2022-12-10T06:43:16;15.23;;;9.90;;
10977;SDS011;5542;48.272;10.794;2022-12-10T06:45:42;15.93;;;11.82;;
10977;SDS011;5542;48.272;10.794;2022-12-10T06:48:09;17.10;;;11.90;;
10977;SDS011;5542;48.272;10.794;2022-12-10T06:50:37;15.55;;;11.63;;
10977;SDS011;5542;48.272;10.794;2022-12-10T06:53:04;17.00;;;11.63;;
10977;SDS011;5542;48.272;10.794;2022-12-10T06:55:30;14.82;;;10.70;;
10977;SDS011;5542;48.272;10.794;2022-12-10T06:57:57;15.68;;;10.82;;
10977;SDS011;5542;48.272;10.794;2022-12-10T07:00:24;14.48;;;10.27;;
10977;SDS011;5542;48.272;10.794;2022-12-10T07:02:50;16.67;;;12.10;;
10977;SDS011;5542;48.272;10.794;2022-12-10T07:05:17;13.05;;;10.10;;
10977;SDS011;5542;48.272;10.794;2022-12-10T07:07:45;18.17;;;11.77;;
10977;SDS011;5542;48.272;10.794;2022-12-10T07:10:11;16.15;;;11.48;;
10977;SDS011;5542;48.272;10.794;2022-12-10T07:12:38;19.17;;;12.95;;
10977;SDS011;5542;48.272;10.794;2022-12-10T07:15:05;17.63;;;11.93;;
10977;SDS011;5542;48.272;10.794;2022-12-10T07:17:32;14.55;;;11.15;;
10977;SDS011;5542;48.272;10.794;2022-12-10T07:19:59;13.27;;;10.10;;
10977;SDS011;5542;48.272;10.794;2022-12-10T07:22:25;15.47;;;10.43;;
10977;SDS011;5542;48.272;10.794;2022-12-10T07:24:53;14.68;;;10.30;;
10977;SDS011;5542;48.272;10.794;2022-12-10T07:27:20;14.02;;;10.25;;
10977;SDS011;5542;48.272;10.794;2022-12-10T07:29:46;15.02;;;10.50;;
10977;SDS011;5542;48.272;10.794;2022-12-10T07:32:13;15.00;;;9.85;;
10977;SDS011;5542;48.272;10.794;2022-12-10T07:34:40;14.20;;;10.65;;
10977;SDS011;5542;48.272;10.794;2022-12-10T07:37:06;15.30;;;11.25;;
10977;SDS011;5542;48.272;10.794;2022-12-10T07:39:33;18.05;;;12.95;;
10977;SDS011;5542;48.272;10.794;2022-12-10T07:42:01;15.73;;;11.85;;
10977;SDS011;5542;48.272;10.794;2022-12-10T07:44:28;17.85;;;12.70;;
10977;SDS011;5542;48.272;10.794;2022-12-10T07:46:55;17.50;;;11.90;;
10977;SDS011;5542;48.272;10.794;2022-12-10T07:49:22;14.73;;;10.80;;
10977;SDS011;5542;48.272;10.794;2022-12-10T07:51:49;16.95;;;11.52;;
10977;SDS011;5542;48.272;10.794;2022-12-10T07:54:17;18.30;;;12.02;;
10977;SDS011;5542;48.272;10.794;2022-12-10T07:56:45;17.98;;;12.00;;
10977;SDS011;5542;48.272;10.794;2022-12-10T07:59:13;18.38;;;12.20;;
10977;SDS011;5542;48.272;10.794;2022-12-10T08:01:39;18.40;;;11.97;;
10977;SDS011;5542;48.272;10.794;2022-12-10T08:04:06;19.10;;;12.57;;
10977;SDS011;5542;48.272;10.794;2022-12-10T08:06:33;17.80;;;11.87;;
10977;SDS011;5542;48.272;10.794;2022-12-10T08:09:00;20.00;;;13.27;;
10977;SDS011;5542;48.272;10.794;2022-12-10T08:11:26;17.20;;;11.73;;
10977;SDS011;5542;48.272;10.794;2022-12-10T08:13:53;18.47;;;12.40;;
10977;SDS011;5542;48.272;10.794;2022-12-10T08:16:22;19.35;;;12.75;;
10977;SDS011;5542;48.272;10.794;2022-12-10T08:18:51;19.20;;;12.45;;
10977;SDS011;5542;48.272;10.794;2022-12-10T08:21:19;24.85;;;15.13;;
10977;SDS011;5542;48.272;10.794;2022-12-10T08:23:47;21.75;;;14.68;;
10977;SDS011;5542;48.272;10.794;2022-12-10T08:26:15;27.08;;;17.33;;
10977;SDS011;5542;48.272;10.794;2022-12-10T08:28:43;25.65;;;14.98;;
10977;SDS011;5542;48.272;10.794;2022-12-10T08:31:11;21.27;;;13.20;;
10977;SDS011;5542;48.272;10.794;2022-12-10T08:33:40;20.33;;;11.88;;
10977;SDS011;5542;48.272;10.794;2022-12-10T08:36:08;21.93;;;13.80;;
10977;SDS011;5542;48.272;10.794;2022-12-10T08:38:38;20.33;;;13.20;;
10977;SDS011;5542;48.272;10.794;2022-12-10T08:41:06;21.23;;;13.87;;
10977;SDS011;5542;48.272;10.794;2022-12-10T08:43:33;25.38;;;14.02;;
10977;SDS011;5542;48.272;10.794;2022-12-10T08:46:00;20.08;;;13.20;;
10977;SDS011;5542;48.272;10.794;2022-12-10T08:48:27;19.42;;;12.15;;
10977;SDS011;5542;48.272;10.794;2022-12-10T08:50:55;19.33;;;12.48;;
10977;SDS011;5542;48.272;10.794;2022-12-10T08:53:22;19.52;;;12.23;;
10977;SDS011;5542;48.272;10.794;2022-12-10T08:55:49;18.13;;;12.77;;
10977;SDS011;5542;48.272;10.794;2022-12-10T08:58:16;19.30;;;12.80;;
10977;SDS011;5542;48.272;10.794;2022-12-10T09:00:43;17.92;;;11.68;;
10977;SDS011;5542;48.272;10.794;2022-12-10T09:03:10;19.58;;;12.68;;
10977;SDS011;5542;48.272;10.794;2022-12-10T09:05:36;17.45;;;12.43;;
10977;SDS011;5542;48.272;10.794;2022-12-10T09:08:05;18.85;;;12.40;;
10977;SDS011;5542;48.272;10.794;2022-12-10T09:10:31;21.08;;;13.27;;
10977;SDS011;5542;48.272;10.794;2022-12-10T09:12:58;20.10;;;13.27;;
10977;SDS011;5542;48.272;10.794;2022-12-10T09:15:25;19.08;;;12.55;;
10977;SDS011;5542;48.272;10.794;2022-12-10T09:17:51;18.63;;;12.45;;
10977;SDS011;5542;48.272;10.794;2022-12-10T09:20:18;18.90;;;12.68;;
10977;SDS011;5542;48.272;10.794;2022-12-10T09:22:44;17.83;;;12.90;;
10977;SDS011;5542;48.272;10.794;2022-12-10T09:25:12;18.67;;;12.60;;
10977;SDS011;5542;48.272;10.794;2022-12-10T09:27:40;16.60;;;11.83;;
10977;SDS011;5542;48.272;10.794;2022-12-10T09:30:08;21.35;;;13.70;;
10977;SDS011;5542;48.272;10.794;2022-12-10T09:32:36;23.02;;;14.20;;
10977;SDS011;5542;48.272;10.794;2022-12-10T09:35:02;18.08;;;12.80;;
10977;SDS011;5542;48.272;10.794;2022-12-10T09:37:30;20.13;;;13.35;;
10977;SDS011;5542;48.272;10.794;2022-12-10T09:39:57;16.77;;;11.93;;
10977;SDS011;5542;48.272;10.794;2022-12-10T09:42:28;17.48;;;11.73;;
10977;SDS011;5542;48.272;10.794;2022-12-10T09:45:05;17.92;;;11.77;;
10977;SDS011;5542;48.272;10.794;2022-12-10T09:47:43;15.80;;;11.10;;
10977;SDS011;5542;48.272;10.794;2022-12-10T09:50:19;16.60;;;11.43;;
10977;SDS011;5542;48.272;10.794;2022-12-10T09:52:50;15.68;;;11.18;;
10977;SDS011;5542;48.272;10.794;2022-12-10T09:55:31;16.80;;;10.65;;
10977;SDS011;5542;48.272;10.794;2022-12-10T09:58:03;15.00;;;11.13;;
10977;SDS011;5542;48.272;10.794;2022-12-10T10:00:32;17.38;;;12.10;;
10977;SDS011;5542;48.272;10.794;2022-12-10T10:03:02;19.05;;;12.45;;
10977;SDS011;5542;48.272;10.794;2022-12-10T10:05:31;14.57;;;10.40;;
10977;SDS011;5542;48.272;10.794;2022-12-10T10:08:02;16.13;;;11.52;;
10977;SDS011;5542;48.272;10.794;2022-12-10T10:10:31;15.57;;;11.60;;
10977;SDS011;5542;48.272;10.794;2022-12-10T10:13:00;16.23;;;11.40;;
10977;SDS011;5542;48.272;10.794;2022-12-10T10:15:39;16.65;;;11.63;;
10977;SDS011;5542;48.272;10.794;2022-12-10T10:18:09;18.67;;;11.57;;
10977;SDS011;5542;48.272;10.794;2022-12-10T10:20:41;17.75;;;11.57;;
10977;SDS011;5542;48.272;10.794;2022-12-10T10:23:08;16.85;;;11.02;;
10977;SDS011;5542;48.272;10.794;2022-12-10T10:25:39;14.13;;;9.38;;
10977;SDS011;5542;48.272;10.794;2022-12-10T10:28:11;13.82;;;10.02;;
10977;SDS011;5542;48.272;10.794;2022-12-10T10:30:40;13.53;;;10.33;;
10977;SDS011;5542;48.272;10.794;2022-12-10T10:33:09;13.23;;;9.53;;
10977;SDS011;5542;48.272;10.794;2022-12-10T10:35:41;14.82;;;10.57;;
10977;SDS011;5542;48.272;10.794;2022-12-10T10:38:13;13.25;;;9.85;;
10977;SDS011;5542;48.272;10.794;2022-12-10T10:40:44;11.80;;;9.20;;
10977;SDS011;5542;48.272;10.794;2022-12-10T10:43:17;13.30;;;10.20;;
10977;SDS011;5542;48.272;10.794;2022-12-10T10:45:47;15.40;;;10.40;;
10977;SDS011;5542;48.272;10.794;2022-12-10T10:48:16;15.05;;;10.18;;
10977;SDS011;5542;48.272;10.794;2022-12-10T10:50:45;14.35;;;10.60;;
10977;SDS011;5542;48.272;10.794;2022-12-10T10:53:26;14.00;;;10.10;;
10977;SDS011;5542;48.272;10.794;2022-12-10T10:55:57;14.70;;;10.48;;
10977;SDS011;5542;48.272;10.794;2022-12-10T10:58:31;15.63;;;10.97;;
10977;SDS011;5542;48.272;10.794;2022-12-10T11:00:59;13.77;;;10.38;;
10977;SDS011;5542;48.272;10.794;2022-12-10T11:03:28;12.23;;;8.75;;
10977;SDS011;5542;48.272;10.794;2022-12-10T11:05:57;16.95;;;11.40;;
10977;SDS011;5542;48.272;10.794;2022-12-10T11:08:26;16.48;;;11.07;;
10977;SDS011;5542;48.272;10.794;2022-12-10T11:10:58;15.20;;;12.23;;
10977;SDS011;5542;48.272;10.794;2022-12-10T11:13:29;19.45;;;13.27;;
10977;SDS011;5542;48.272;10.794;2022-12-10T11:16:00;19.70;;;13.30;;
10977;SDS011;5542;48.272;10.794;2022-12-10T11:18:36;20.38;;;12.90;;
10977;SDS011;5542;48.272;10.794;2022-12-10T11:21:05;21.48;;;14.55;;
10977;SDS011;5542;48.272;10.794;2022-12-10T11:23:42;18.63;;;12.90;;
10977;SDS011;5542;48.272;10.794;2022-12-10T11:26:16;18.00;;;12.90;;
10977;SDS011;5542;48.272;10.794;2022-12-10T11:28:57;15.07;;;11.07;;
10977;SDS011;5542;48.272;10.794;2022-12-10T11:31:36;14.25;;;9.75;;
10977;SDS011;5542;48.272;10.794;2022-12-10T11:34:14;18.10;;;12.02;;
10977;SDS011;5542;48.272;10.794;2022-12-10T11:36:47;13.93;;;10.05;;
10977;SDS011;5542;48.272;10.794;2022-12-10T11:39:32;15.05;;;11.18;;
10977;SDS011;5542;48.272;10.794;2022-12-10T11:42:19;16.77;;;12.27;;
10977;SDS011;5542;48.272;10.794;2022-12-10T11:44:57;18.73;;;12.95;;
10977;SDS011;5542;48.272;10.794;2022-12-10T11:47:37;22.33;;;15.63;;
10977;SDS011;5542;48.272;10.794;2022-12-10T11:50:15;14.27;;;11.13;;
10977;SDS011;5542;48.272;10.794;2022-12-10T11:52:54;15.05;;;11.18;;
10977;SDS011;5542;48.272;10.794;2022-12-10T11:55:32;14.10;;;10.20;;
10977;SDS011;5542;48.272;10.794;2022-12-10T12:01:05;12.02;;;9.25;;
10977;SDS011;5542;48.272;10.794;2022-12-10T12:06:30;11.57;;;8.82;;
10977;SDS011;5542;48.272;10.794;2022-12-10T12:09:12;12.77;;;9.82;;
10977;SDS011;5542;48.272;10.794;2022-12-10T12:11:54;27.00;;;17.00;;
10977;SDS011;5542;48.272;10.794;2022-12-10T12:14:26;25.23;;;16.43;;
10977;SDS011;5542;48.272;10.794;2022-12-10T12:17:00;13.95;;;10.80;;
10977;SDS011;5542;48.272;10.794;2022-12-10T12:19:33;13.98;;;10.07;;
10977;SDS011;5542;48.272;10.794;2022-12-10T12:22:06;17.55;;;12.02;;
10977;SDS011;5542;48.272;10.794;2022-12-10T12:24:52;14.57;;;11.88;;
10977;SDS011;5542;48.272;10.794;2022-12-10T12:27:24;13.52;;;10.00;;
10977;SDS011;5542;48.272;10.794;2022-12-10T12:30:03;10.95;;;9.00;;
10977;SDS011;5542;48.272;10.794;2022-12-10T12:32:39;10.87;;;9.23;;
10977;SDS011;5542;48.272;10.794;2022-12-10T12:35:14;11.73;;;9.02;;
10977;SDS011;5542;48.272;10.794;2022-12-10T12:37:46;12.73;;;9.77;;
10977;SDS011;5542;48.272;10.794;2022-12-10T12:40:20;14.45;;;10.23;;
10977;SDS011;5542;48.272;10.794;2022-12-10T12:42:55;14.10;;;9.70;;
10977;SDS011;5542;48.272;10.794;2022-12-10T12:45:28;12.77;;;9.80;;
10977;SDS011;5542;48.272;10.794;2022-12-10T12:48:01;15.45;;;10.82;;
10977;SDS011;5542;48.272;10.794;2022-12-10T12:50:38;12.88;;;10.25;;
10977;SDS011;5542;48.272;10.794;2022-12-10T12:53:11;11.48;;;8.80;;
10977;SDS011;5542;48.272;10.794;2022-12-10T12:55:43;12.45;;;9.90;;
10977;SDS011;5542;48.272;10.794;2022-12-10T12:58:16;14.75;;;10.68;;
10977;SDS011;5542;48.272;10.794;2022-12-10T13:00:53;12.60;;;9.38;;
10977;SDS011;5542;48.272;10.794;2022-12-10T13:03:27;12.93;;;10.18;;
10977;SDS011;5542;48.272;10.794;2022-12-10T13:06:12;12.67;;;9.87;;
10977;SDS011;5542;48.272;10.794;2022-12-10T13:08:44;12.38;;;9.35;;
10977;SDS011;5542;48.272;10.794;2022-12-10T13:11:27;13.00;;;9.93;;
10977;SDS011;5542;48.272;10.794;2022-12-10T13:14:13;14.13;;;10.43;;
10977;SDS011;5542;48.272;10.794;2022-12-10T13:16:47;13.15;;;10.50;;
10977;SDS011;5542;48.272;10.794;2022-12-10T13:19:25;14.18;;;10.20;;
10977;SDS011;5542;48.272;10.794;2022-12-10T13:22:02;15.35;;;10.50;;
10977;SDS011;5542;48.272;10.794;2022-12-10T13:24:45;13.10;;;9.93;;
10977;SDS011;5542;48.272;10.794;2022-12-10T13:27:17;13.57;;;10.15;;
10977;SDS011;5542;48.272;10.794;2022-12-10T13:29:46;14.85;;;11.25;;
10977;SDS011;5542;48.272;10.794;2022-12-10T13:32:21;15.38;;;12.00;;
10977;SDS011;5542;48.272;10.794;2022-12-10T13:35:15;14.30;;;10.52;;
10977;SDS011;5542;48.272;10.794;2022-12-10T13:37:59;12.00;;;9.20;;
10977;SDS011;5542;48.272;10.794;2022-12-10T13:40:41;11.88;;;9.18;;
10977;SDS011;5542;48.272;10.794;2022-12-10T13:43:27;10.93;;;8.63;;
10977;SDS011;5542;48.272;10.794;2022-12-10T13:46:26;14.80;;;10.77;;
10977;SDS011;5542;48.272;10.794;2022-12-10T13:48:58;11.68;;;8.77;;
10977;SDS011;5542;48.272;10.794;2022-12-10T13:51:28;11.82;;;8.70;;
10977;SDS011;5542;48.272;10.794;2022-12-10T13:57:07;13.52;;;9.40;;
10977;SDS011;5542;48.272;10.794;2022-12-10T13:59:47;12.60;;;9.83;;
10977;SDS011;5542;48.272;10.794;2022-12-10T14:02:20;13.82;;;10.48;;
10977;SDS011;5542;48.272;10.794;2022-12-10T14:05:12;12.48;;;8.90;;
10977;SDS011;5542;48.272;10.794;2022-12-10T14:07:50;12.20;;;9.77;;
10977;SDS011;5542;48.272;10.794;2022-12-10T14:10:22;12.02;;;9.30;;
10977;SDS011;5542;48.272;10.794;2022-12-10T14:12:54;14.02;;;9.75;;
10977;SDS011;5542;48.272;10.794;2022-12-10T14:15:21;12.95;;;9.35;;
10977;SDS011;5542;48.272;10.794;2022-12-10T14:17:50;13.07;;;9.20;;
10977;SDS011;5542;48.272;10.794;2022-12-10T14:20:21;12.02;;;9.20;;
10977;SDS011;5542;48.272;10.794;2022-12-10T14:22:50;11.27;;;8.80;;
10977;SDS011;5542;48.272;10.794;2022-12-10T14:25:18;11.33;;;8.37;;
10977;SDS011;5542;48.272;10.794;2022-12-10T14:27:49;12.63;;;9.63;;
10977;SDS011;5542;48.272;10.794;2022-12-10T14:30:17;11.73;;;9.38;;
10977;SDS011;5542;48.272;10.794;2022-12-10T14:32:46;10.32;;;7.97;;
10977;SDS011;5542;48.272;10.794;2022-12-10T14:35:15;12.77;;;9.73;;
10977;SDS011;5542;48.272;10.794;2022-12-10T14:37:45;12.95;;;9.77;;
10977;SDS011;5542;48.272;10.794;2022-12-10T14:40:17;12.68;;;9.10;;
10977;SDS011;5542;48.272;10.794;2022-12-10T14:42:49;12.88;;;9.93;;
10977;SDS011;5542;48.272;10.794;2022-12-10T14:45:18;11.07;;;8.65;;
10977;SDS011;5542;48.272;10.794;2022-12-10T14:47:46;12.32;;;9.60;;
10977;SDS011;5542;48.272;10.794;2022-12-10T14:50:14;13.50;;;10.33;;
10977;SDS011;5542;48.272;10.794;2022-12-10T14:52:43;15.02;;;10.98;;